createdAt,value
2022-08-04T00:02:32.585Z,100.00
2022-08-04T00:07:48.465Z,100.00
2022-08-04T00:12:54.049Z,100.00
2022-08-04T00:18:03.243Z,100.00
2022-08-04T00:23:06.688Z,100.00
2022-08-04T00:28:09.187Z,100.00
2022-08-04T00:33:11.724Z,100.00
2022-08-04T00:38:18.495Z,100.00
2022-08-04T00:43:33.506Z,100.00
2022-08-04T00:48:53.395Z,100.00
2022-08-04T00:54:04.182Z,100.00
2022-08-04T00:59:31.344Z,100.00
2022-08-04T01:04:57.077Z,100.00
2022-08-04T01:10:17.644Z,100.00
2022-08-04T01:15:31.884Z,100.00
2022-08-04T01:21:26.233Z,100.00
2022-08-04T01:26:57.629Z,100.00
2022-08-04T01:32:07.501Z,100.00
2022-08-04T01:37:32.551Z,100.00
2022-08-04T01:42:36.857Z,100.00
2022-08-04T01:47:49.143Z,100.00
2022-08-04T01:52:54.980Z,100.00
2022-08-04T01:57:59.752Z,100.00
2022-08-04T02:03:01.667Z,100.00
2022-08-04T02:08:18.673Z,100.00
2022-08-04T02:13:27.214Z,100.00
2022-08-04T02:19:14.598Z,100.00
2022-08-04T02:24:20.090Z,100.00
2022-08-04T02:29:49.788Z,100.00
2022-08-04T02:35:11.816Z,100.00
2022-08-04T02:40:20.297Z,100.00
2022-08-04T02:45:25.508Z,100.00
2022-08-04T02:50:30.404Z,100.00
2022-08-04T02:55:33.969Z,100.00
2022-08-04T03:00:37.592Z,100.00
2022-08-04T03:05:50.204Z,100.00
2022-08-04T03:11:27.706Z,100.00
2022-08-04T03:16:38.866Z,100.00
2022-08-04T03:21:46.831Z,100.00
2022-08-04T03:27:36.839Z,100.00
2022-08-04T03:33:17.237Z,100.00
2022-08-04T03:38:57.192Z,100.00
2022-08-04T03:44:24.114Z,100.00
2022-08-04T03:49:25.915Z,100.00
2022-08-04T03:54:42.907Z,100.00
2022-08-04T04:00:03.787Z,100.00
2022-08-04T04:05:25.723Z,100.00
2022-08-04T04:11:01.239Z,100.00
2022-08-04T04:16:29.434Z,100.00
2022-08-04T04:21:49.853Z,100.00
2022-08-04T04:27:18.382Z,100.00
2022-08-04T04:32:47.690Z,100.00
2022-08-04T04:37:55.651Z,100.00
2022-08-04T04:43:13.786Z,100.00
2022-08-04T04:48:34.080Z,100.00
2022-08-04T04:54:27.214Z,100.00
2022-08-04T04:59:34.808Z,100.00
2022-08-04T05:04:55.044Z,100.00
2022-08-04T05:10:15.251Z,100.00
2022-08-04T05:15:23.861Z,100.00
2022-08-04T05:20:38.924Z,100.00
2022-08-04T05:25:59.137Z,100.00
2022-08-04T05:31:06.381Z,100.00
2022-08-04T05:36:18.955Z,100.00
2022-08-04T05:41:32.343Z,100.00
2022-08-04T05:46:54.229Z,100.00
2022-08-04T05:52:01.154Z,100.00
2022-08-04T05:57:05.452Z,100.00
2022-08-04T06:02:09.833Z,100.00
2022-08-04T06:07:13.259Z,100.00
2022-08-04T06:12:20.027Z,100.00
2022-08-04T06:19:57.377Z,100.00
2022-08-04T06:23:00.601Z,100.00
2022-08-04T06:28:06.740Z,100.00
2022-08-04T06:33:33.659Z,100.00
2022-08-04T06:38:58.839Z,100.00
2022-08-04T06:44:04.649Z,100.00
2022-08-04T06:49:07.207Z,100.00
2022-08-04T06:54:09.139Z,100.00
2022-08-04T06:59:14.287Z,100.00
2022-08-04T07:04:16.347Z,100.00
2022-08-04T07:09:18.758Z,100.00
2022-08-04T07:14:21.281Z,100.00
2022-08-04T07:19:23.175Z,100.00
2022-08-04T07:24:36.501Z,100.00
2022-08-04T07:29:40.123Z,100.00
2022-08-04T07:34:43.375Z,100.00
2022-08-04T07:39:51.789Z,100.00
2022-08-04T07:44:56.096Z,92.02
2022-08-04T07:49:58.605Z,92.45
2022-08-04T07:55:00.677Z,86.52
2022-08-04T08:00:04.805Z,85.11
2022-08-04T08:05:17.160Z,81.42
2022-08-04T08:10:19.136Z,80.15
2022-08-04T08:15:21.618Z,76.95
2022-08-04T08:20:29.573Z,74.79
2022-08-04T08:25:33.485Z,74.10
2022-08-04T08:30:35.610Z,68.58
2022-08-04T08:35:53.829Z,71.45
2022-08-04T08:41:36.063Z,70.35
2022-08-04T08:46:53.504Z,72.31
2022-08-04T08:52:01.758Z,66.21
2022-08-04T08:57:30.851Z,63.50
2022-08-04T09:02:45.574Z,59.10
2022-08-04T09:08:06.082Z,58.61
2022-08-04T09:13:37.448Z,59.63
2022-08-04T09:18:53.028Z,55.05
2022-08-04T09:24:35.754Z,57.26
2022-08-04T09:30:15.448Z,53.47
2022-08-04T09:35:35.647Z,53.92
2022-08-04T09:40:57.799Z,52.80
2022-08-04T09:46:35.145Z,53.57
2022-08-04T09:51:58.385Z,57.19
2022-08-04T09:57:08.048Z,54.42
2022-08-04T10:02:13.392Z,53.59
2022-08-04T10:07:43.148Z,52.46
2022-08-04T10:13:24.693Z,47.41
2022-08-04T10:18:53.555Z,48.62
2022-08-04T10:24:24.647Z,48.89
2022-08-04T10:29:37.593Z,49.59
2022-08-04T10:35:11.113Z,48.20
2022-08-04T10:40:40.654Z,45.17
2022-08-04T10:45:49.274Z,47.89
2022-08-04T10:51:18.172Z,45.62
2022-08-04T10:56:30.241Z,47.84
2022-08-04T11:01:59.599Z,44.31
2022-08-04T11:07:00.372Z,44.61
2022-08-04T11:12:21.335Z,39.99
2022-08-04T11:17:28.164Z,38.27
2022-08-04T11:22:30.621Z,34.97
2022-08-04T11:28:00.107Z,34.12
2022-08-04T11:33:22.127Z,33.79
2022-08-04T11:38:37.125Z,34.09
2022-08-04T11:44:02.343Z,32.72
2022-08-04T11:49:11.951Z,29.16
2022-08-04T11:54:15.156Z,29.79
2022-08-04T11:59:18.487Z,28.18
2022-08-04T12:05:00.479Z,29.09
2022-08-04T12:10:40.911Z,27.48
2022-08-04T12:15:59.162Z,30.15
2022-08-04T12:21:06.516Z,27.48
2022-08-04T12:26:20.920Z,31.63
2022-08-04T12:31:52.804Z,32.07
2022-08-04T12:37:04.927Z,29.82
2022-08-04T12:42:34.241Z,29.17
2022-08-04T12:47:38.240Z,26.36
2022-08-04T12:53:05.145Z,25.97
2022-08-04T12:58:16.120Z,25.73
2022-08-04T13:03:24.020Z,26.54
2022-08-04T13:08:26.266Z,25.06
2022-08-04T13:13:31.735Z,23.67
2022-08-04T13:18:39.930Z,25.13
2022-08-04T13:24:10.293Z,23.00
2022-08-04T13:29:16.169Z,23.88
2022-08-04T13:34:19.555Z,22.10
2022-08-04T13:39:23.665Z,22.09
2022-08-04T13:44:29.017Z,22.64
2022-08-04T13:49:42.921Z,27.31
2022-08-04T13:54:53.753Z,32.55
2022-08-04T14:00:02.391Z,33.06
2022-08-04T14:05:18.422Z,27.63
2022-08-04T14:10:21.262Z,28.54
2022-08-04T14:16:02.540Z,29.91
2022-08-04T14:21:09.639Z,34.31
2022-08-04T14:26:31.385Z,38.14
2022-08-04T14:31:35.309Z,37.54
2022-08-04T14:36:49.657Z,34.58
2022-08-04T14:42:06.634Z,27.84
2022-08-04T14:47:13.090Z,25.11
2022-08-04T14:52:24.262Z,23.46
2022-08-04T14:57:27.388Z,24.83
2022-08-04T15:02:29.831Z,23.70
2022-08-04T15:07:32.890Z,23.02
2022-08-04T15:12:35.071Z,22.69
2022-08-04T15:17:37.680Z,23.02
2022-08-04T15:22:39.957Z,24.34
2022-08-04T15:27:43.949Z,27.23
2022-08-04T15:32:53.344Z,29.55
2022-08-04T15:38:03.964Z,32.72
2022-08-04T15:43:39.930Z,35.37
2022-08-04T15:48:42.012Z,35.92
2022-08-04T15:54:03.428Z,36.70
2022-08-04T15:59:05.744Z,38.64
2022-08-04T16:04:25.168Z,38.68
2022-08-04T16:09:46.056Z,40.73
2022-08-04T16:14:48.458Z,39.69
2022-08-04T16:20:02.805Z,40.71
2022-08-04T16:25:05.893Z,41.62
2022-08-04T16:30:14.350Z,43.68
2022-08-04T16:35:28.690Z,41.64
2022-08-04T16:40:39.037Z,42.91
2022-08-04T16:45:45.710Z,42.94
2022-08-04T16:50:50.605Z,44.19
2022-08-04T16:55:54.600Z,45.56
2022-08-04T17:00:57.311Z,45.85
2022-08-04T17:06:14.517Z,47.37
2022-08-04T17:11:17.033Z,48.03
2022-08-04T17:16:21.194Z,48.61
2022-08-04T17:21:26.660Z,48.60
2022-08-04T17:26:39.505Z,49.59
2022-08-04T17:31:42.532Z,51.38
2022-08-04T17:36:44.542Z,52.03
2022-08-04T17:41:49.157Z,55.03
2022-08-04T17:46:51.326Z,56.29
2022-08-04T17:52:05.104Z,57.58
2022-08-04T17:57:19.647Z,60.63
2022-08-04T18:02:23.739Z,60.91
2022-08-04T18:08:39.661Z,63.65
2022-08-04T18:13:14.334Z,65.38
2022-08-04T18:23:50.617Z,79.75
2022-08-04T18:28:53.081Z,94.35
2022-08-04T18:33:57.118Z,97.45
2022-08-04T18:39:13.167Z,100.00
2022-08-04T18:44:17.998Z,100.00
2022-08-04T18:50:58.861Z,100.00
2022-08-04T18:54:51.488Z,100.00
2022-08-04T18:59:57.421Z,100.00
2022-08-04T19:05:02.432Z,100.00
2022-08-04T19:10:04.633Z,100.00
2022-08-04T19:15:08.416Z,100.00
2022-08-04T19:20:24.291Z,100.00
2022-08-04T19:25:58.393Z,100.00
2022-08-04T19:30:49.581Z,100.00
2022-08-04T19:35:52.986Z,100.00
2022-08-04T19:40:55.959Z,100.00
2022-08-04T19:45:58.438Z,100.00
2022-08-04T19:51:00.291Z,100.00
2022-08-04T19:56:03.999Z,100.00
2022-08-04T20:01:33.423Z,100.00
2022-08-04T20:06:28.474Z,100.00
2022-08-04T20:11:31.732Z,100.00
2022-08-04T20:16:35.595Z,100.00
2022-08-04T20:21:55.604Z,100.00
2022-08-04T20:26:58.366Z,100.00
2022-08-04T20:32:05.727Z,100.00
2022-08-04T20:37:11.550Z,100.00
2022-08-04T20:42:15.792Z,100.00
2022-08-04T20:47:17.721Z,100.00
2022-08-04T20:52:20.780Z,100.00
2022-08-04T20:57:48.720Z,100.00
2022-08-04T21:02:45.009Z,100.00
2022-08-04T21:07:48.744Z,100.00
2022-08-04T21:12:51.112Z,100.00
2022-08-04T21:17:59.415Z,100.00
2022-08-04T21:23:07.435Z,100.00
2022-08-04T21:28:09.364Z,100.00
2022-08-04T21:33:11.189Z,100.00
2022-08-04T21:38:18.224Z,100.00
2022-08-04T21:43:20.406Z,100.00
2022-08-04T21:48:27.414Z,100.00
2022-08-04T21:53:29.621Z,100.00
2022-08-04T21:58:32.910Z,100.00
2022-08-04T22:03:53.105Z,100.00
2022-08-04T22:08:56.901Z,100.00
2022-08-04T22:14:11.009Z,100.00
2022-08-04T22:19:13.754Z,100.00
2022-08-04T22:24:15.871Z,100.00
2022-08-04T22:29:18.240Z,100.00
2022-08-04T22:34:20.151Z,100.00
2022-08-04T22:39:27.537Z,100.00
2022-08-04T22:44:33.051Z,100.00
2022-08-04T22:49:42.916Z,100.00
2022-08-04T22:54:44.843Z,100.00
2022-08-04T22:59:47.428Z,100.00
2022-08-04T23:04:54.038Z,100.00
2022-08-04T23:09:56.091Z,100.00
2022-08-04T23:14:58.837Z,100.00
2022-08-04T23:20:00.646Z,100.00
2022-08-04T23:25:02.480Z,100.00
2022-08-04T23:30:06.497Z,100.00
2022-08-04T23:35:09.319Z,100.00
2022-08-04T23:40:32.624Z,100.00
2022-08-04T23:46:06.634Z,100.00
2022-08-04T23:51:04.564Z,100.00
2022-08-04T23:56:19.666Z,100.00
